Clay Springs, Arizona
Current Conditions -  °F | °C
As of 11:15 AM on Thursday 30 Oct 2014 (Local Time) from KSOW Reporting Station
Clear Clear  
Wind Chill: 64°   Ceiling: Unl
Heat Index: 64°   Visibility: 10mi
Dew Point: 27°   Wind: 5mph
Humidity: 24%   Direction: 360°N
Pressure: 30.36"   Gusts: NA
Location:  34.36°N, 110.3°W
Report Text: KSOW 301815Z AUTO 36004KT 10SM CLR 18/M03 A3036 RMK AO2
Loading
Personal Weather Stations






























Interactive Weather Map
Tropical Storm Tracking
New forecast layout! Learn more

10-Day Weather Forecast

Advertisements
Track Severe Weather on mobile